Time;durP1;ratioP1;P1;durP2;ratioP2;P2;SDS_P1;SDS_P2;PMS_P1;PMS_P2;Temp;Humidity;BMP_temperature;BMP_pressure;BME280_temperature;BME280_humidity;BME280_pressure;Samples;Min_cycle;Max_cycle;Signal;HPM_P1;HPM_P2
2022/08/27 00:00:46;;;;;;;4.97;2.10;;;;;;;17.54;71.00;101837.59;4975045;28;20084;-90
2022/08/27 00:03:14;;;;;;;3.22;1.77;;;;;;;17.56;71.71;101837.88;4974809;28;20123;-90
2022/08/27 00:05:41;;;;;;;3.67;1.75;;;;;;;17.54;71.11;101838.34;4975109;28;20055;-88
2022/08/27 00:08:11;;;;;;;7.40;1.98;;;;;;;17.54;70.82;101832.97;4974242;28;20047;-90
2022/08/27 00:10:39;;;;;;;3.08;1.80;;;;;;;17.55;71.37;101833.72;4974850;28;20106;-90
2022/08/27 00:13:05;;;;;;;2.80;1.70;;;;;;;17.53;71.33;101836.13;4974484;28;20142;-90
2022/08/27 00:15:32;;;;;;;4.57;1.70;;;;;;;17.51;71.07;101835.84;4973448;28;20048;-90
2022/08/27 00:17:59;;;;;;;1.83;1.63;;;;;;;17.51;71.35;101831.19;4973429;28;20059;-90
2022/08/27 00:20:27;;;;;;;3.72;1.90;;;;;;;17.53;71.39;101822.66;4974532;28;20079;-89
2022/08/27 00:22:53;;;;;;;5.47;1.70;;;;;;;17.52;70.97;101821.91;4957743;28;20055;-89
2022/08/27 00:25:20;;;;;;;3.83;2.08;;;;;;;17.52;70.97;101824.59;4957915;28;20055;-87
2022/08/27 00:27:47;;;;;;;4.43;1.70;;;;;;;17.51;70.95;101817.00;4973629;28;20110;-89
2022/08/27 00:30:15;;;;;;;3.10;1.70;;;;;;;17.48;70.90;101821.34;4983084;28;20126;-89
2022/08/27 00:32:43;;;;;;;2.75;1.80;;;;;;;17.48;70.99;101821.34;4995115;28;20070;-88
2022/08/27 00:35:10;;;;;;;6.43;1.80;;;;;;;17.47;71.15;101825.25;4994682;28;20919;-89
2022/08/27 00:37:37;;;;;;;4.05;2.13;;;;;;;17.43;71.20;101821.97;4996050;28;20113;-90
2022/08/27 00:40:07;;;;;;;2.30;1.65;;;;;;;17.43;71.12;101816.59;4995869;28;20055;-89
2022/08/27 00:42:33;;;;;;;4.95;2.10;;;;;;;17.43;70.86;101813.91;4994076;28;20043;-88
2022/08/27 00:45:00;;;;;;;4.00;2.10;;;;;;;17.42;71.26;101817.06;4994450;28;20046;-86
2022/08/27 00:47:30;;;;;;;7.60;2.08;;;;;;;17.42;71.05;101815.09;4995359;28;20488;-88
2022/08/27 00:50:03;;;;;;;6.68;2.20;;;;;;;17.41;71.23;101808.25;4995863;28;20046;-89
2022/08/27 00:52:35;;;;;;;2.28;2.00;;;;;;;17.42;71.10;101803.59;4994621;28;20050;-88
2022/08/27 00:55:07;;;;;;;2.72;1.90;;;;;;;17.41;71.21;101810.19;4995420;28;20416;-87
2022/08/27 00:57:37;;;;;;;6.50;2.03;;;;;;;17.39;70.80;101812.59;4995064;28;20093;-88
2022/08/27 01:00:08;;;;;;;3.78;1.60;;;;;;;17.39;70.79;101812.59;4994994;28;20078;-88
2022/08/27 01:02:34;;;;;;;5.93;1.95;;;;;;;17.37;71.19;101817.69;4994173;28;20050;-88
2022/08/27 01:05:14;;;;;;;3.92;2.28;;;;;;;17.38;71.32;101811.09;4994709;28;20110;-89
2022/08/27 01:07:47;;;;;;;3.50;2.10;;;;;;;17.37;70.99;101823.06;4997148;28;20055;-88
2022/08/27 01:10:17;;;;;;;3.05;1.67;;;;;;;17.37;72.23;101826.50;4999249;28;20055;-88
2022/08/27 01:12:44;;;;;;;5.45;2.10;;;;;;;17.34;72.49;101822.78;5002826;28;20058;-87
2022/08/27 01:15:21;;;;;;;2.97;2.05;;;;;;;17.34;72.85;101824.72;5007030;28;20051;-89
2022/08/27 01:17:49;;;;;;;6.90;1.85;;;;;;;17.30;73.75;101822.22;5005434;28;20043;-89
2022/08/27 01:20:21;;;;;;;3.38;1.88;;;;;;;17.30;73.09;101819.53;4996435;28;20570;-89
2022/08/27 01:23:21;;;;;;;6.15;1.95;;;;;;;17.29;73.45;101825.38;4996114;28;20110;-88
2022/08/27 01:25:48;;;;;;;6.25;1.88;;;;;;;17.28;73.75;101824.63;4998784;28;20046;-89
2022/08/27 01:28:15;;;;;;;3.00;1.90;;;;;;;17.30;74.02;101824.16;4997807;28;20073;-90
2022/08/27 01:30:47;;;;;;;4.05;1.90;;;;;;;17.32;74.15;101819.81;4997642;28;20047;-90
2022/08/27 01:33:17;;;;;;;4.28;2.20;;;;;;;17.31;74.16;101821.00;4998175;28;20110;-89
2022/08/27 01:35:46;;;;;;;3.85;1.88;;;;;;;17.29;74.22;101823.41;4998699;28;20039;-88
2022/08/27 01:38:14;;;;;;;3.67;2.22;;;;;;;17.27;74.71;101815.06;4998308;28;20050;-89
2022/08/27 01:41:01;;;;;;;4.78;2.40;;;;;;;17.23;74.55;101827.19;4997262;28;20135;-89
2022/08/27 01:43:30;;;;;;;4.63;2.47;;;;;;;17.24;74.92;101815.22;5012021;28;20047;-89
2022/08/27 01:45:58;;;;;;;4.38;1.77;;;;;;;17.28;75.20;101821.94;4997728;28;20050;-89
2022/08/27 01:48:24;;;;;;;3.65;2.05;;;;;;;17.27;74.81;101817.00;4997206;28;20046;-87
2022/08/27 01:50:51;;;;;;;3.38;2.20;;;;;;;17.28;75.28;101821.19;4995669;28;20051;-89
2022/08/27 01:53:22;;;;;;;2.03;1.83;;;;;;;17.24;74.83;101810.59;4997984;28;20075;-88
2022/08/27 01:55:50;;;;;;;2.08;1.85;;;;;;;17.24;75.38;101815.22;4996622;28;20050;-88
2022/08/27 01:58:21;;;;;;;2.85;1.88;;;;;;;17.23;74.84;101816.44;4997908;28;20039;-86
2022/08/27 02:00:52;;;;;;;3.43;2.10;;;;;;;17.22;75.54;101815.69;4997113;28;20055;-89
2022/08/27 02:03:22;;;;;;;4.55;2.08;;;;;;;17.23;75.59;101816.44;4995513;28;20113;-89
2022/08/27 02:05:49;;;;;;;4.22;2.05;;;;;;;17.23;75.39;101811.78;4996775;28;20102;-88
2022/08/27 02:08:16;;;;;;;3.90;2.25;;;;;;;17.20;75.87;101803.91;4996441;28;20752;-89
2022/08/27 02:10:47;;;;;;;5.80;2.38;;;;;;;17.21;75.37;101805.38;4997003;28;20047;-89
2022/08/27 02:13:15;;;;;;;3.77;2.00;;;;;;;17.19;75.00;101803.19;4996993;28;20419;-88
2022/08/27 02:15:42;;;;;;;7.03;2.10;;;;;;;17.21;75.60;101805.38;4998615;28;20254;-89
2022/08/27 02:18:10;;;;;;;4.03;2.13;;;;;;;17.22;75.34;101799.53;4998717;28;20051;-89
2022/08/27 02:20:37;;;;;;;3.97;2.10;;;;;;;17.22;75.42;101801.50;4999408;28;20097;-89
2022/08/27 02:23:05;;;;;;;2.72;1.80;;;;;;;17.18;76.17;101800.94;4998267;28;20464;-89
2022/08/27 02:25:31;;;;;;;4.05;1.92;;;;;;;17.17;75.71;101796.78;4997058;28;20047;-88
2022/08/27 02:27:59;;;;;;;4.40;2.30;;;;;;;17.17;76.09;101797.53;4997177;28;20054;-89
2022/08/27 02:30:29;;;;;;;4.72;2.28;;;;;;;17.15;76.29;101794.53;4997486;28;20049;-89
2022/08/27 02:32:55;;;;;;;7.45;2.28;;;;;;;17.13;75.72;101796.19;4997517;28;20531;-89
2022/08/27 02:35:23;;;;;;;5.55;2.25;;;;;;;17.12;75.91;101794.72;4997281;28;20488;-89
2022/08/27 02:37:51;;;;;;;3.90;2.00;;;;;;;17.10;75.89;101797.88;4996856;28;20047;-89
2022/08/27 02:40:19;;;;;;;3.67;2.30;;;;;;;17.08;76.43;101794.13;4996958;28;20114;-89
2022/08/27 02:42:46;;;;;;;4.97;2.17;;;;;;;17.07;76.30;101795.34;4996363;28;20518;-89
2022/08/27 02:45:14;;;;;;;3.03;2.30;;;;;;;17.05;76.30;101798.50;4997753;28;20058;-89
2022/08/27 02:47:41;;;;;;;2.35;2.15;;;;;;;17.06;76.32;101797.28;4997266;28;20094;-90
2022/08/27 02:50:08;;;;;;;5.57;2.55;;;;;;;17.07;76.04;101798.78;4998405;28;20051;-89
2022/08/27 02:52:35;;;;;;;3.13;1.73;;;;;;;17.06;76.28;101788.47;4996397;28;20110;-90
2022/08/27 02:55:04;;;;;;;2.50;1.88;;;;;;;17.05;76.05;101798.50;4998834;28;20058;-89
2022/08/27 02:57:31;;;;;;;4.07;2.05;;;;;;;17.03;76.12;101789.38;4997551;28;20130;-89
2022/08/27 03:00:05;;;;;;;6.15;2.25;;;;;;;17.05;75.72;101790.41;4999544;28;20110;-90
2022/08/27 03:02:32;;;;;;;2.17;2.03;;;;;;;17.04;76.27;101785.50;4998523;28;20058;-90
2022/08/27 03:04:58;;;;;;;2.35;2.08;;;;;;;17.05;75.97;101795.06;5000539;28;20502;-91
2022/08/27 03:07:25;;;;;;;6.82;2.40;;;;;;;17.03;76.54;101789.38;4997766;28;20046;-91
2022/08/27 03:09:51;;;;;;;3.25;2.10;;;;;;;17.00;76.26;101793.75;4998046;28;20051;-90
2022/08/27 03:12:18;;;;;;;3.08;2.10;;;;;;;16.98;76.18;101791.50;4998205;28;20039;-90
2022/08/27 03:14:48;;;;;;;2.22;2.00;;;;;;;16.94;76.62;101777.47;4981104;28;20057;-90
2022/08/27 03:20:00;;;;;;;3.63;2.30;;;;;;;16.86;77.38;101780.97;4998869;28;20050;-90
2022/08/27 03:22:27;;;;;;;5.13;2.08;;;;;;;16.83;77.33;101785.31;4997117;28;20595;-90
2022/08/27 03:24:55;;;;;;;5.60;2.10;;;;;;;16.79;77.28;101784.03;4999011;28;20034;-90
2022/08/27 03:27:21;;;;;;;3.63;2.10;;;;;;;16.74;77.43;101788.06;4998555;28;20051;-90
2022/08/27 03:29:48;;;;;;;4.53;2.00;;;;;;;16.69;77.79;101787.97;4997605;28;20058;-90
2022/08/27 03:32:14;;;;;;;4.28;2.13;;;;;;;16.63;77.80;101790.50;4996700;28;20228;-89
2022/08/27 03:34:41;;;;;;;3.33;2.03;;;;;;;16.58;78.03;101788.41;4996998;28;20483;-90
2022/08/27 03:37:07;;;;;;;4.97;2.50;;;;;;;16.52;78.06;101785.59;4996749;28;20548;-90
2022/08/27 03:39:34;;;;;;;3.75;2.10;;;;;;;16.50;78.05;101781.88;4996034;28;20704;-90
2022/08/27 03:42:01;;;;;;;3.08;2.08;;;;;;;16.45;78.23;101783.25;4996527;28;20243;-88
2022/08/27 03:44:27;;;;;;;2.90;1.85;;;;;;;16.43;78.71;101787.59;4996580;28;20050;-90
2022/08/27 03:46:54;;;;;;;3.90;2.05;;;;;;;16.39;78.72;101781.66;4997412;28;20078;-89
2022/08/27 03:49:22;;;;;;;5.00;2.30;;;;;;;16.36;78.89;101782.56;4998022;28;20106;-91
2022/08/27 03:51:50;;;;;;;4.68;2.60;;;;;;;16.31;78.85;101787.34;4997470;28;20817;-90
2022/08/27 03:54:17;;;;;;;4.82;2.22;;;;;;;16.27;78.87;101791.41;4997152;28;20834;-89
2022/08/27 03:56:44;;;;;;;4.57;2.47;;;;;;;16.24;79.30;101784.97;4997264;28;20047;-90
2022/08/27 03:59:11;;;;;;;3.72;2.20;;;;;;;16.23;79.62;101788.13;4995118;28;20082;-90
2022/08/27 04:01:37;;;;;;;6.47;2.40;;;;;;;16.21;79.82;101790.50;4996127;28;20110;-90
2022/08/27 04:04:04;;;;;;;4.28;2.05;;;;;;;16.21;79.87;101791.25;4996108;28;20047;-90
2022/08/27 04:06:33;;;;;;;2.22;2.10;;;;;;;16.22;79.81;101789.31;4994739;28;20047;-89
2022/08/27 04:09:00;;;;;;;5.90;2.15;;;;;;;16.23;79.70;101788.88;4995648;28;20047;-89
2022/08/27 04:11:28;;;;;;;3.30;2.28;;;;;;;16.24;79.86;101798.41;4997087;28;20117;-90
2022/08/27 04:13:55;;;;;;;4.90;2.05;;;;;;;16.19;80.33;101804.41;4994937;28;20504;-91
2022/08/27 04:16:21;;;;;;;2.08;1.95;;;;;;;16.16;80.31;101799.19;4996756;28;20101;-89
2022/08/27 04:18:48;;;;;;;2.97;2.10;;;;;;;16.15;80.01;101803.06;4998384;28;20106;-90
2022/08/27 04:21:14;;;;;;;3.50;2.50;;;;;;;16.14;80.24;101798.88;4997786;28;20050;-90
2022/08/27 04:23:41;;;;;;;4.32;2.47;;;;;;;16.13;80.49;101803.50;4997260;28;20047;-90
2022/08/27 04:26:09;;;;;;;3.50;2.30;;;;;;;16.11;80.51;101803.22;4996718;28;20246;-90
2022/08/27 04:28:37;;;;;;;3.72;2.63;;;;;;;16.14;80.70;101798.88;4996719;28;20046;-90
2022/08/27 04:31:05;;;;;;;4.50;2.35;;;;;;;16.16;80.89;101799.19;4996128;28;20046;-88
2022/08/27 04:33:39;;;;;;;2.30;2.10;;;;;;;16.15;80.66;101790.38;4997119;28;20046;-89
2022/08/27 04:36:08;;;;;;;3.35;2.20;;;;;;;16.14;80.37;101796.94;4996467;28;20050;-90
2022/08/27 04:38:36;;;;;;;3.95;2.20;;;;;;;16.11;80.74;101795.16;4998524;28;20035;-91
2022/08/27 04:41:25;;;;;;;5.68;2.58;;;;;;;16.09;81.55;101788.75;5009379;28;20050;-90
2022/08/27 04:43:53;;;;;;;2.35;2.15;;;;;;;16.09;81.03;101791.44;5010726;28;20054;-89
2022/08/27 04:46:27;;;;;;;5.10;2.30;;;;;;;16.08;81.20;101792.63;5002691;28;20106;-89
2022/08/27 04:49:00;;;;;;;5.32;2.80;;;;;;;16.06;81.25;101792.34;4996196;28;20051;-90
2022/08/27 04:51:28;;;;;;;3.10;2.30;;;;;;;16.06;81.52;101795.78;4996657;28;20042;-88
2022/08/27 04:53:55;;;;;;;4.80;2.22;;;;;;;16.09;81.06;101792.19;4996106;28;20421;-91
2022/08/27 04:56:22;;;;;;;3.33;2.35;;;;;;;16.01;81.41;101797.13;4996429;28;20047;-91
2022/08/27 04:58:50;;;;;;;3.42;2.40;;;;;;;16.02;81.64;101800.56;4998660;28;20051;-92
2022/08/27 05:01:23;;;;;;;3.08;2.30;;;;;;;16.02;81.74;101803.25;4998037;28;20046;-92
2022/08/27 05:03:50;;;;;;;2.80;2.28;;;;;;;16.05;81.48;101805.03;4997323;28;20054;-92
2022/08/27 05:06:17;;;;;;;3.35;2.33;;;;;;;16.10;81.59;101803.66;4998585;28;20055;-92
2022/08/27 05:08:44;;;;;;;4.47;2.05;;;;;;;16.12;81.40;101802.03;4995822;28;20502;-91
2022/08/27 05:11:13;;;;;;;9.82;2.40;;;;;;;16.14;80.89;101802.31;4997818;28;20042;-91
2022/08/27 05:13:41;;;;;;;5.60;2.30;;;;;;;16.10;80.88;101793.66;4995696;28;20854;-91
2022/08/27 05:16:10;;;;;;;4.72;2.50;;;;;;;16.08;81.40;101796.06;4995021;28;20051;-91
2022/08/27 05:18:39;;;;;;;3.97;2.47;;;;;;;16.06;82.14;101805.78;4995455;28;20125;-91
2022/08/27 05:21:30;;;;;;;3.97;2.22;;;;;;;16.04;81.78;101803.53;4995956;28;20046;-90
2022/08/27 05:24:00;;;;;;;3.33;2.38;;;;;;;16.01;81.97;101799.81;4995869;28;20054;-90
2022/08/27 05:26:28;;;;;;;3.92;2.78;;;;;;;16.01;82.27;101801.75;4993957;28;20047;-91
2022/08/27 05:28:57;;;;;;;3.28;2.50;;;;;;;15.99;82.61;101809.53;4994624;28;20047;-90
2022/08/27 05:31:24;;;;;;;5.38;2.50;;;;;;;15.99;82.65;101807.56;4995437;28;20042;-90
2022/08/27 05:33:51;;;;;;;4.22;2.33;;;;;;;16.04;82.79;101811.59;4995718;28;20110;-91
2022/08/27 05:36:28;;;;;;;2.75;2.38;;;;;;;16.04;82.26;101814.28;4995010;28;20496;-90
2022/08/27 05:38:56;;;;;;;2.50;2.28;;;;;;;16.06;82.27;101817.25;4993434;28;20595;-90
2022/08/27 05:41:26;;;;;;;5.13;2.60;;;;;;;16.13;82.58;101816.94;4995702;28;20108;-90
2022/08/27 05:44:03;;;;;;;2.30;2.10;;;;;;;16.19;82.19;101819.78;4995582;28;20077;-90
2022/08/27 05:46:50;;;;;;;3.30;2.38;;;;;;;16.20;82.29;101822.00;4996185;28;20047;-91
2022/08/27 05:49:17;;;;;;;3.97;2.30;;;;;;;16.21;82.68;101818.13;4997392;28;20046;-91
2022/08/27 05:51:43;;;;;;;2.58;2.05;;;;;;;16.24;82.19;101824.53;4997205;28;20047;-91
2022/08/27 05:54:15;;;;;;;4.13;2.20;;;;;;;16.29;83.08;101824.66;5000227;28;20042;-91
2022/08/27 05:56:42;;;;;;;;;;;;;;;16.34;81.61;101826.75;5002445;28;20048;-91
2022/08/27 06:01:54;;;;;;;4.32;2.40;;;;;;;16.39;82.79;101825.41;5003997;28;20563;-90
2022/08/27 06:04:23;;;;;;;4.57;2.70;;;;;;;16.38;82.86;101823.16;5003525;28;20552;-89
2022/08/27 06:06:51;;;;;;;3.60;2.20;;;;;;;16.39;82.78;101825.41;5001497;28;20043;-90
2022/08/27 06:09:23;;;;;;;3.47;2.60;;;;;;;16.36;82.38;101820.94;4998219;28;20023;-88
2022/08/27 06:11:53;;;;;;;7.55;2.47;;;;;;;16.40;82.53;101823.44;4998322;28;20046;-91
2022/08/27 06:14:21;;;;;;;6.72;2.50;;;;;;;16.43;82.81;101822.53;4997574;28;20090;-90
2022/08/27 06:16:47;;;;;;;3.15;2.53;;;;;;;16.48;82.06;101825.34;4998193;28;20043;-89
2022/08/27 06:19:14;;;;;;;3.40;2.55;;;;;;;16.58;82.08;101828.75;4998211;28;20436;-90
2022/08/27 06:21:41;;;;;;;5.93;2.50;;;;;;;16.64;81.28;101833.06;4999548;28;20058;-93
2022/08/27 06:24:11;;;;;;;5.18;2.70;;;;;;;16.70;81.14;101827.09;4998770;28;20054;-91
2022/08/27 06:26:39;;;;;;;8.68;2.45;;;;;;;16.72;80.05;101825.44;4998255;28;20113;-90
2022/08/27 06:29:07;;;;;;;7.20;3.00;;;;;;;16.82;80.79;101826.09;4996965;28;20039;-83
2022/08/27 06:31:34;;;;;;;4.55;2.40;;;;;;;16.88;79.38;101829.66;4993425;28;20047;-79
2022/08/27 06:34:03;;;;;;;4.47;2.40;;;;;;;16.94;79.68;101822.47;4994950;28;20058;-81
2022/08/27 06:36:36;;;;;;;9.68;2.35;;;;;;;17.03;79.69;101821.66;4993927;28;20047;-82
2022/08/27 06:39:04;;;;;;;2.53;2.30;;;;;;;17.10;79.72;101830.16;4994729;28;20046;-79
2022/08/27 06:41:32;;;;;;;3.28;2.28;;;;;;;17.17;78.71;101829.06;4992884;28;20051;-80
2022/08/27 06:43:58;;;;;;;3.95;2.28;;;;;;;17.34;78.26;101830.13;4992887;28;20058;-80
2022/08/27 06:46:27;;;;;;;4.70;2.58;;;;;;;17.50;77.66;101832.41;4992641;28;20405;-82
2022/08/27 06:48:57;;;;;;;6.18;2.70;;;;;;;17.57;76.93;101834.00;4992735;28;20055;-82
2022/08/27 06:51:26;;;;;;;6.05;2.70;;;;;;;17.64;76.09;101830.91;4994143;28;20050;-84
2022/08/27 06:53:55;;;;;;;3.20;2.60;;;;;;;17.74;75.70;101835.06;4992746;28;20523;-82
2022/08/27 06:56:22;;;;;;;8.10;2.85;;;;;;;17.84;74.29;101835.72;4993226;28;20423;-83
2022/08/27 06:58:56;;;;;;;4.60;2.65;;;;;;;17.90;73.86;101831.19;4993059;28;20055;-83
2022/08/27 07:01:26;;;;;;;4.00;2.60;;;;;;;18.03;74.61;101825.50;4986175;28;20047;-78
2022/08/27 07:03:57;;;;;;;2.67;2.47;;;;;;;18.15;73.54;101827.91;4974223;28;20051;-78
2022/08/27 07:06:26;;;;;;;7.47;2.70;;;;;;;18.25;72.38;101836.66;4973955;28;20238;-79
2022/08/27 07:08:52;;;;;;;2.83;2.53;;;;;;;18.45;71.75;101839.41;4973473;28;20047;-78
2022/08/27 07:11:22;;;;;;;7.03;3.00;;;;;;;18.74;71.68;101835.19;4974959;28;20049;-79
2022/08/27 07:13:49;;;;;;;4.35;2.60;;;;;;;18.98;68.95;101839.19;4973340;28;20046;-80
2022/08/27 07:16:18;;;;;;;5.10;3.72;;;;;;;19.16;67.62;101840.88;4974349;28;20082;-79
2022/08/27 07:18:50;;;;;;;9.00;2.90;;;;;;;19.33;67.86;101843.78;4974926;28;20054;-79
2022/08/27 07:21:18;;;;;;;7.75;3.30;;;;;;;19.50;65.81;101836.59;4974649;28;20089;-79
2022/08/27 07:23:47;;;;;;;4.13;2.45;;;;;;;19.71;65.42;101831.91;4973212;28;20047;-82
2022/08/27 07:26:18;;;;;;;2.08;1.70;;;;;;;19.94;60.09;101833.63;4974864;28;20122;-82
2022/08/27 07:28:45;;;;;;;6.20;2.03;;;;;;;20.19;60.55;101840.19;4972308;28;20086;-81
2022/08/27 07:31:15;;;;;;;2.38;1.70;;;;;;;20.48;60.05;101839.19;4972997;28;20052;-82
2022/08/27 07:33:42;;;;;;;1.60;1.50;;;;;;;20.50;56.65;101836.00;4974323;28;20453;-83
2022/08/27 07:36:20;;;;;;;3.17;1.83;;;;;;;20.38;56.76;101842.59;4975413;28;20058;-82
2022/08/27 07:38:48;;;;;;;4.03;1.58;;;;;;;20.41;56.47;101844.31;4974580;28;20110;-83
2022/08/27 07:41:28;;;;;;;2.58;1.63;;;;;;;20.47;55.98;101842.38;4975795;28;20122;-78
2022/08/27 07:46:53;;;;;;;3.55;1.58;;;;;;;20.41;54.64;101850.47;4974498;28;20868;-81
2022/08/27 07:49:21;;;;;;;4.57;1.73;;;;;;;20.44;55.17;101846.06;4974287;28;20528;-81
2022/08/27 07:51:48;;;;;;;2.55;1.60;;;;;;;20.62;54.90;101854.53;4972765;28;20079;-81
2022/08/27 07:54:16;;;;;;;3.03;1.52;;;;;;;20.50;54.05;101852.97;4956584;28;20099;-82
2022/08/27 07:56:42;;;;;;;3.70;1.75;;;;;;;20.46;54.80;101855.16;4973975;28;20047;-86
2022/08/27 07:59:27;;;;;;;9.02;1.95;;;;;;;20.52;55.08;101860.63;4975761;28;20051;-83
2022/08/27 08:01:55;;;;;;;6.25;2.00;;;;;;;20.60;55.72;101853.53;4985440;28;20043;-94
2022/08/27 08:04:22;;;;;;;1.58;1.38;;;;;;;20.68;55.77;101862.69;4998317;28;20031;-93
2022/08/27 08:06:50;;;;;;;1.73;1.38;;;;;;;20.74;55.39;101857.31;4998851;28;20054;-92
2022/08/27 08:09:17;;;;;;;2.03;1.40;;;;;;;20.72;54.26;101857.06;4990787;28;20051;-93
2022/08/27 08:11:43;;;;;;;5.15;1.52;;;;;;;20.66;53.88;101856.28;4981226;28;20148;-87
2022/08/27 08:14:10;;;;;;;4.00;1.60;;;;;;;20.59;54.24;101855.50;4979531;28;20043;-91
2022/08/27 08:16:36;;;;;;;2.67;1.35;;;;;;;20.59;52.66;101865.59;4977765;28;20047;-91
2022/08/27 08:19:03;;;;;;;2.95;1.90;;;;;;;20.67;53.05;101861.22;4978461;28;20090;-90
2022/08/27 08:21:30;;;;;;;2.60;1.40;;;;;;;20.90;53.77;101859.38;4995340;28;20066;-93
2022/08/27 08:23:56;;;;;;;3.15;1.45;;;;;;;21.23;52.91;101864.94;4979361;28;20059;-95
2022/08/27 08:26:23;;;;;;;1.77;1.15;;;;;;;21.45;51.85;101861.59;4981680;28;20159;-95
2022/08/27 08:28:49;;;;;;;2.72;1.40;;;;;;;21.50;50.78;101860.88;4981959;28;20059;-94
2022/08/27 08:31:16;;;;;;;1.33;1.23;;;;;;;21.59;51.21;101868.75;4981569;28;20071;-93
2022/08/27 08:33:43;;;;;;;4.13;1.20;;;;;;;21.61;50.15;101865.53;4979549;28;20079;-95
2022/08/27 08:36:12;;;;;;;2.10;1.30;;;;;;;21.57;50.50;101867.78;4980562;28;20047;-92
2022/08/27 08:38:39;;;;;;;23.48;2.17;;;;;;;21.51;50.49;101872.44;4978900;28;20059;-93
2022/08/27 08:41:30;;;;;;;1.40;1.30;;;;;;;21.56;51.26;101877.13;4978626;28;20087;-95
2022/08/27 08:44:01;;;;;;;9.53;1.50;;;;;;;21.58;50.79;101872.72;4982235;28;20047;-91
2022/08/27 08:46:47;;;;;;;2.72;1.33;;;;;;;21.62;49.42;101875.91;4983069;28;20263;-92
2022/08/27 08:49:25;;;;;;;4.57;1.50;;;;;;;21.70;50.75;101880.84;4989973;28;20043;-95
2022/08/27 08:51:55;;;;;;;2.95;1.42;;;;;;;21.73;50.63;101874.44;4986261;28;20055;-93
2022/08/27 08:54:29;;;;;;;4.22;1.40;;;;;;;21.84;50.15;101874.47;4981417;28;20885;-92
2022/08/27 08:57:02;;;;;;;11.50;2.17;;;;;;;21.82;49.86;101874.97;4984231;28;20044;-93
2022/08/27 08:59:38;;;;;;;17.52;2.03;;;;;;;21.85;50.41;101878.66;4984555;28;20071;-96
2022/08/27 09:02:07;;;;;;;2.25;1.40;;;;;;;21.88;50.80;101878.41;4984355;28;20507;-93
2022/08/27 09:04:40;;;;;;;2.58;1.23;;;;;;;21.98;49.62;101880.91;4981087;28;20055;-90
2022/08/27 09:07:22;;;;;;;1.52;1.30;;;;;;;22.07;49.97;101883.38;4982702;28;20040;-95
2022/08/27 09:09:51;;;;;;;5.93;1.42;;;;;;;22.01;50.42;101886.09;4983686;28;20055;-95
2022/08/27 09:12:29;;;;;;;1.52;1.30;;;;;;;22.02;50.20;101878.69;4977623;28;20059;-91
2022/08/27 09:15:12;;;;;;;4.28;1.60;;;;;;;22.05;50.33;101875.00;4977752;28;20047;-92
2022/08/27 09:17:40;;;;;;;1.30;1.20;;;;;;;22.17;49.56;101877.22;4977397;28;20051;-94
2022/08/27 09:20:09;;;;;;;2.35;1.38;;;;;;;22.17;50.31;101881.91;4978766;28;20475;-91
2022/08/27 09:22:41;;;;;;;10.75;2.63;;;;;;;22.41;50.46;101873.25;4978878;28;20036;-93
2022/08/27 09:25:25;;;;;;;4.03;1.73;;;;;;;22.55;48.76;101878.44;4977999;28;20092;-90
2022/08/27 09:27:55;;;;;;;12.60;1.73;;;;;;;22.57;49.01;101873.25;4979722;28;20102;-92
2022/08/27 09:30:25;;;;;;;1.40;1.30;;;;;;;22.54;49.88;101881.63;4983583;28;20051;-96
2022/08/27 09:33:03;;;;;;;3.80;1.45;;;;;;;22.38;49.00;101880.44;4982812;28;20126;-92
2022/08/27 09:35:44;;;;;;;10.70;2.13;;;;;;;22.23;49.81;101885.38;4981611;28;20047;-93
2022/08/27 09:38:29;;;;;;;2.05;1.10;;;;;;;22.11;49.66;101887.31;4980984;28;20046;-88
2022/08/27 09:41:15;;;;;;;2.78;1.38;;;;;;;22.02;49.72;101892.25;4983614;28;20531;-93
2022/08/27 09:43:42;;;;;;;5.78;1.58;;;;;;;22.07;50.23;101894.22;4985202;28;20890;-92
2022/08/27 09:46:20;;;;;;;7.07;1.38;;;;;;;22.09;50.07;101889.06;4983744;28;20051;-94
2022/08/27 09:48:50;;;;;;;4.60;1.50;;;;;;;22.05;50.14;101889.28;4985028;28;20866;-91
2022/08/27 09:51:28;;;;;;;3.13;1.63;;;;;;;22.26;50.46;101890.53;4981418;28;20576;-86
2022/08/27 09:53:58;;;;;;;3.72;1.40;;;;;;;22.36;50.06;101885.63;4974617;28;20039;-82
2022/08/27 09:56:28;;;;;;;2.90;1.40;;;;;;;22.45;50.37;101881.88;4976604;28;20052;-84
2022/08/27 09:59:03;;;;;;;2.53;1.42;;;;;;;22.41;48.89;101882.13;4975285;28;20726;-87
2022/08/27 10:01:37;;;;;;;3.90;1.40;;;;;;;22.38;49.74;101879.69;4975689;28;20051;-80
2022/08/27 10:04:12;;;;;;;4.85;1.70;;;;;;;22.49;49.18;101877.69;4975328;28;20058;-81
2022/08/27 10:06:47;;;;;;;5.07;1.55;;;;;;;22.54;49.32;101878.91;4975762;28;20043;-81
2022/08/27 10:09:23;;;;;;;5.05;1.63;;;;;;;22.44;48.78;101880.41;4975298;28;20108;-81
2022/08/27 10:12:04;;;;;;;2.75;1.40;;;;;;;22.24;49.49;101874.03;4973969;28;20047;-81
2022/08/27 10:14:37;;;;;;;3.58;1.67;;;;;;;22.25;49.29;101872.78;4974715;28;20043;-82
2022/08/27 10:17:46;;;;;;;7.47;1.58;;;;;;;22.44;49.88;101869.56;4975934;28;20043;-81
2022/08/27 10:20:31;;;;;;;11.75;2.10;;;;;;;22.33;49.45;101880.44;4953014;28;20048;-82
2022/08/27 10:23:31;;;;;;;4.60;1.65;;;;;;;22.07;49.60;101881.41;4952614;28;20521;-81
2022/08/27 10:26:11;;;;;;;10.27;2.60;;;;;;;21.89;50.07;101879.16;4953797;28;20095;-84
2022/08/27 10:29:01;;;;;;;2.15;1.33;;;;;;;21.80;50.69;101880.13;4941799;28;20055;-90
2022/08/27 10:31:41;;;;;;;4.07;1.33;;;;;;;21.60;51.45;101883.03;4941399;28;20552;-96
2022/08/27 10:34:19;;;;;;;7.80;1.65;;;;;;;21.64;51.14;101883.53;4956903;28;20433;-88
2022/08/27 10:37:01;;;;;;;3.30;1.33;;;;;;;21.72;51.23;101891.94;4959747;28;20058;-96
2022/08/27 10:40:00;;;;;;;4.55;1.30;;;;;;;21.79;51.04;101889.50;4956361;28;20134;-89
2022/08/27 10:42:46;;;;;;;3.67;1.55;;;;;;;21.87;50.97;101884.34;4957617;28;20863;-92
2022/08/27 10:45:29;;;;;;;2.05;1.23;;;;;;;21.90;50.59;101889.50;4940334;28;20111;-89
2022/08/27 10:47:56;;;;;;;3.78;1.63;;;;;;;22.05;51.46;101883.88;4959697;28;20064;-95
2022/08/27 10:50:41;;;;;;;4.28;2.10;;;;;;;22.23;51.53;101877.97;4956925;28;20051;-86
2022/08/27 10:53:16;;;;;;;5.70;1.30;;;;;;;22.23;50.86;101877.97;4953644;28;20054;-89
2022/08/27 10:55:50;;;;;;;2.13;1.40;;;;;;;22.24;50.40;101870.56;4977452;28;20106;-82
2022/08/27 10:58:56;;;;;;;5.65;1.52;;;;;;;22.29;51.78;101878.72;4975449;28;20052;-85
2022/08/27 11:01:50;;;;;;;9.07;1.80;;;;;;;22.30;50.95;101865.88;4974617;28;20043;-85
2022/08/27 11:04:24;;;;;;;8.38;1.70;;;;;;;22.41;51.15;101879.41;4975367;28;20066;-86
2022/08/27 11:06:58;;;;;;;7.40;1.70;;;;;;;22.51;49.96;101867.09;4974740;28;20083;-85
2022/08/27 11:09:48;;;;;;;2.55;1.33;;;;;;;22.44;49.64;101877.69;4974549;28;20047;-87
2022/08/27 11:12:30;;;;;;;3.55;1.40;;;;;;;22.51;50.56;101879.91;4975178;28;20055;-87
2022/08/27 11:15:01;;;;;;;4.90;1.55;;;;;;;22.54;48.17;101871.53;4974770;28;20050;-86
2022/08/27 11:17:28;;;;;;;3.03;1.27;;;;;;;22.51;48.61;101869.06;4974519;28;20047;-86
2022/08/27 11:20:15;;;;;;;3.28;1.30;;;;;;;22.37;48.28;101864.66;4974547;28;20578;-86
2022/08/27 11:23:05;;;;;;;25.90;2.95;;;;;;;22.48;49.77;101864.63;4974279;28;20078;-86
2022/08/27 11:25:59;;;;;;;1.90;1.38;;;;;;;22.91;48.55;101865.78;4973376;28;20579;-86
2022/08/27 11:28:40;;;;;;;4.82;1.42;;;;;;;23.17;47.75;101862.75;4974766;28;20051;-87
2022/08/27 11:31:18;;;;;;;5.68;1.50;;;;;;;23.38;48.36;101868.56;4975047;28;20211;-86
2022/08/27 11:34:06;;;;;;;7.80;1.45;;;;;;;23.00;49.41;101870.19;4975561;28;20051;-87
2022/08/27 11:37:10;;;;;;;4.45;1.30;;;;;;;22.72;49.80;101867.56;4976007;28;20039;-86
2022/08/27 11:39:58;;;;;;;6.38;1.17;;;;;;;22.44;51.20;101866.84;4977107;28;20055;-87
2022/08/27 11:42:48;;;;;;;12.90;1.75;;;;;;;22.33;51.18;101864.91;4973355;28;20055;-86
2022/08/27 11:45:19;;;;;;;5.25;1.63;;;;;;;22.14;52.25;101867.38;4973471;28;20051;-85
2022/08/27 11:47:50;;;;;;;;;;;;;;;22.13;52.33;101870.56;4975835;28;20047;-86
2022/08/27 11:50:19;;;;;;;26.67;3.80;;;;;;;22.09;52.48;101872.78;4974731;28;20439;-85
2022/08/27 11:53:04;;;;;;;15.93;2.20;;;;;;;22.13;52.29;101868.59;4974767;28;20043;-85